Time;durP1;ratioP1;P1;durP2;ratioP2;P2;SDS_P1;SDS_P2;PMS_P1;PMS_P2;Temp;Humidity;BMP_temperature;BMP_pressure;BME280_temperature;BME280_humidity;BME280_pressure;Samples;Min_cycle;Max_cycle;Signal;HPM_P1;HPM_P2
2023/08/31 00:02:25;;;;;;;11.97;4.70;;;13.60;99.90;;;;;;5049298;28;20437;-64
2023/08/31 00:04:54;;;;;;;14.97;3.63;;;13.50;99.90;;;;;;5049444;28;20454;-65
2023/08/31 00:07:22;;;;;;;8.33;3.00;;;13.50;99.90;;;;;;5049365;28;20463;-66
2023/08/31 00:09:51;;;;;;;11.40;3.20;;;13.40;99.90;;;;;;5049393;28;20484;-66
2023/08/31 00:12:19;;;;;;;7.90;2.50;;;13.50;99.90;;;;;;5049063;28;20486;-66
2023/08/31 00:14:50;;;;;;;7.00;2.17;;;13.50;99.90;;;;;;5049734;28;20520;-66
2023/08/31 00:17:18;;;;;;;8.50;2.70;;;13.40;99.90;;;;;;5049165;28;20509;-65
2023/08/31 00:19:46;;;;;;;11.40;3.40;;;13.40;99.90;;;;;;5049237;28;20447;-66
2023/08/31 00:22:14;;;;;;;8.90;2.67;;;13.40;99.90;;;;;;5049253;28;20924;-66
2023/08/31 00:24:42;;;;;;;8.90;2.90;;;13.30;99.90;;;;;;5048937;28;20445;-66
2023/08/31 00:27:12;;;;;;;10.73;2.80;;;13.40;99.90;;;;;;5049499;28;20476;-66
2023/08/31 00:29:40;;;;;;;8.90;2.90;;;13.30;99.90;;;;;;5049114;28;20534;-66
2023/08/31 00:32:09;;;;;;;8.73;2.73;;;13.30;99.90;;;;;;5049094;28;20479;-66
2023/08/31 00:34:37;;;;;;;9.50;3.13;;;13.20;99.90;;;;;;5048891;28;20470;-66
2023/08/31 00:37:05;;;;;;;9.57;2.60;;;13.10;99.90;;;;;;5049399;28;21038;-66
2023/08/31 00:39:34;;;;;;;8.97;3.03;;;13.10;99.90;;;;;;5049009;28;20476;-66
2023/08/31 00:42:03;;;;;;;7.87;2.67;;;13.00;99.90;;;;;;5049214;28;20435;-65
2023/08/31 00:44:31;;;;;;;9.20;2.50;;;13.00;99.90;;;;;;5048624;28;21070;-65
2023/08/31 00:46:59;;;;;;;9.80;2.70;;;13.00;99.90;;;;;;5048783;28;20996;-66
2023/08/31 00:49:28;;;;;;;7.50;2.60;;;13.00;99.90;;;;;;5049049;28;21003;-66
2023/08/31 00:51:57;;;;;;;11.27;3.27;;;13.00;99.90;;;;;;5048643;28;20478;-66
2023/08/31 00:54:26;;;;;;;9.53;2.67;;;13.00;99.90;;;;;;5048610;28;20788;-66
2023/08/31 00:56:56;;;;;;;9.60;3.07;;;12.90;99.90;;;;;;5049129;28;20463;-66
2023/08/31 00:59:24;;;;;;;10.80;3.10;;;12.90;99.90;;;;;;5049011;28;20461;-66
2023/08/31 01:02:03;;;;;;;8.60;2.67;;;12.90;99.90;;;;;;5048929;28;20443;-66
2023/08/31 01:04:39;;;;;;;8.83;2.80;;;13.00;99.90;;;;;;5048733;28;20442;-66
2023/08/31 01:07:17;;;;;;;11.47;2.70;;;13.00;99.90;;;;;;5052388;28;21063;-66
2023/08/31 01:09:56;;;;;;;8.33;2.50;;;13.10;99.90;;;;;;5052753;28;20450;-66
2023/08/31 01:12:32;;;;;;;9.23;2.60;;;13.10;99.90;;;;;;5052216;28;20486;-65
2023/08/31 01:15:07;;;;;;;11.43;3.13;;;13.00;99.90;;;;;;5052648;28;20442;-66
2023/08/31 01:17:42;;;;;;;8.60;2.90;;;13.00;99.90;;;;;;5052398;28;20465;-66
2023/08/31 01:20:15;;;;;;;9.10;3.20;;;12.90;99.90;;;;;;5052493;28;20450;-67
2023/08/31 01:22:47;;;;;;;10.37;3.27;;;12.80;99.90;;;;;;5052274;28;20443;-66
2023/08/31 01:25:17;;;;;;;7.63;2.60;;;12.70;99.90;;;;;;5052457;28;20455;-66
2023/08/31 01:27:45;;;;;;;9.10;2.67;;;12.60;99.90;;;;;;5052385;28;20477;-66
2023/08/31 01:30:13;;;;;;;12.63;3.50;;;12.60;99.90;;;;;;5052489;28;20488;-64
2023/08/31 01:32:46;;;;;;;11.50;3.50;;;12.70;99.90;;;;;;5051889;28;20483;-67
2023/08/31 01:35:17;;;;;;;9.40;3.30;;;12.70;99.90;;;;;;5052240;28;20527;-65
2023/08/31 01:37:50;;;;;;;12.07;3.07;;;12.70;99.90;;;;;;5052107;28;20477;-67
2023/08/31 01:40:24;;;;;;;8.33;2.60;;;12.70;99.90;;;;;;5052390;28;20883;-67
2023/08/31 01:42:52;;;;;;;10.47;3.23;;;12.70;99.90;;;;;;5052081;28;21210;-67
2023/08/31 01:45:23;;;;;;;8.90;2.97;;;12.60;99.90;;;;;;5052308;28;20446;-67
2023/08/31 01:47:51;;;;;;;9.70;3.03;;;12.60;99.90;;;;;;5051886;28;20458;-67
2023/08/31 01:50:19;;;;;;;10.10;2.73;;;12.60;99.90;;;;;;5051965;28;20454;-66
2023/08/31 01:52:47;;;;;;;8.30;2.97;;;12.60;99.90;;;;;;5051417;28;21211;-67
2023/08/31 01:55:15;;;;;;;9.13;2.97;;;12.50;99.90;;;;;;5051648;28;21067;-67
2023/08/31 01:57:45;;;;;;;8.37;3.30;;;12.40;99.90;;;;;;5051837;28;20562;-66
2023/08/31 02:00:15;;;;;;;7.97;2.83;;;12.50;99.90;;;;;;5051598;28;20942;-66
2023/08/31 02:02:43;;;;;;;8.93;3.00;;;12.50;99.90;;;;;;5050247;28;20536;-66
2023/08/31 02:05:11;;;;;;;10.60;2.83;;;12.60;99.90;;;;;;5051599;28;20456;-67
2023/08/31 02:07:40;;;;;;;9.10;3.07;;;12.60;99.90;;;;;;5051501;28;20850;-66
2023/08/31 02:10:08;;;;;;;11.50;3.03;;;12.80;99.90;;;;;;5051349;28;20454;-67
2023/08/31 02:12:37;;;;;;;8.87;3.33;;;12.90;99.90;;;;;;5051169;28;20478;-66
2023/08/31 02:15:07;;;;;;;8.20;2.70;;;12.90;99.90;;;;;;5051355;28;20538;-66
2023/08/31 02:17:35;;;;;;;9.50;3.10;;;13.00;99.90;;;;;;5050281;28;20551;-66
2023/08/31 02:20:06;;;;;;;8.53;2.47;;;13.00;99.90;;;;;;5051568;28;20937;-67
2023/08/31 02:22:35;;;;;;;7.43;2.20;;;13.00;99.90;;;;;;5051230;28;20524;-66
2023/08/31 02:25:03;;;;;;;8.00;2.30;;;13.00;99.90;;;;;;5051128;28;20450;-66
2023/08/31 02:27:31;;;;;;;7.27;2.20;;;13.10;99.90;;;;;;5051010;28;20497;-66
2023/08/31 02:29:59;;;;;;;7.20;2.13;;;13.00;99.90;;;;;;5050982;28;20441;-67
2023/08/31 02:32:28;;;;;;;7.10;1.90;;;13.10;99.90;;;;;;5050960;28;20892;-66
2023/08/31 02:34:56;;;;;;;7.10;2.17;;;13.10;99.90;;;;;;5050824;28;21047;-66
2023/08/31 02:37:24;;;;;;;7.60;1.90;;;13.10;99.90;;;;;;5050859;28;20554;-66
2023/08/31 02:39:52;;;;;;;7.50;2.30;;;13.10;99.90;;;;;;5050882;28;20871;-66
2023/08/31 02:42:20;;;;;;;9.53;2.23;;;13.20;99.90;;;;;;5051045;28;20446;-66
2023/08/31 02:44:52;;;;;;;8.07;3.03;;;13.10;99.90;;;;;;5050706;28;21143;-67
2023/08/31 02:47:20;;;;;;;7.30;2.43;;;13.10;99.90;;;;;;5050753;28;20470;-66
2023/08/31 02:49:49;;;;;;;7.73;2.53;;;13.20;99.90;;;;;;5050667;28;20954;-66
2023/08/31 02:52:17;;;;;;;8.97;2.77;;;13.20;99.90;;;;;;5050783;28;20853;-66
2023/08/31 02:54:45;;;;;;;9.73;2.37;;;13.30;99.90;;;;;;5050402;28;20488;-66
2023/08/31 02:57:15;;;;;;;9.30;2.27;;;13.40;99.90;;;;;;5050616;28;20498;-66
2023/08/31 02:59:43;;;;;;;8.77;2.70;;;13.30;99.90;;;;;;5050760;28;20540;-66
2023/08/31 03:02:10;;;;;;;8.50;2.60;;;13.30;99.90;;;;;;5050329;28;20455;-66
2023/08/31 03:04:39;;;;;;;12.63;2.37;;;13.30;99.90;;;;;;5050370;28;20490;-66
2023/08/31 03:07:08;;;;;;;8.10;2.30;;;13.30;99.90;;;;;;5050284;28;20471;-66
2023/08/31 03:09:38;;;;;;;8.30;2.47;;;13.20;99.90;;;;;;5050098;28;20462;-66
2023/08/31 03:12:07;;;;;;;7.73;2.40;;;13.20;99.90;;;;;;5050430;28;20470;-66
2023/08/31 03:14:35;;;;;;;7.40;1.97;;;13.20;99.90;;;;;;5049925;28;20439;-67
2023/08/31 03:17:03;;;;;;;8.30;2.40;;;13.20;99.90;;;;;;5050102;28;20473;-66
2023/08/31 03:19:31;;;;;;;8.97;2.50;;;13.10;99.90;;;;;;5050207;28;20523;-66
2023/08/31 03:21:58;;;;;;;10.27;3.00;;;13.00;99.90;;;;;;5050065;28;20538;-66
2023/08/31 03:24:28;;;;;;;7.73;2.50;;;13.00;99.90;;;;;;5049990;28;20520;-66
2023/08/31 03:26:56;;;;;;;10.47;3.17;;;13.00;99.90;;;;;;5050321;28;20493;-67
2023/08/31 03:29:24;;;;;;;8.60;2.53;;;12.90;99.90;;;;;;5049936;28;20440;-66
2023/08/31 03:31:52;;;;;;;7.47;2.07;;;12.80;99.90;;;;;;5050050;28;20446;-66
2023/08/31 03:34:19;;;;;;;8.73;2.57;;;12.70;99.90;;;;;;5049403;28;20489;-66
2023/08/31 03:36:47;;;;;;;11.83;2.67;;;12.70;99.90;;;;;;5050054;28;21001;-66
2023/08/31 03:39:15;;;;;;;9.17;2.50;;;12.70;99.90;;;;;;5049734;28;20445;-66
2023/08/31 03:41:44;;;;;;;9.33;2.10;;;12.70;99.90;;;;;;5049950;28;20448;-66
2023/08/31 03:44:12;;;;;;;7.80;2.80;;;12.60;99.90;;;;;;5049500;28;20448;-66
2023/08/31 03:46:40;;;;;;;8.70;2.80;;;12.60;99.90;;;;;;5049687;28;20507;-66
2023/08/31 03:49:08;;;;;;;8.13;2.60;;;12.60;99.90;;;;;;5049519;28;20519;-66
2023/08/31 03:51:36;;;;;;;7.37;2.30;;;12.60;99.90;;;;;;5049749;28;20449;-66
2023/08/31 03:54:04;;;;;;;7.50;2.20;;;12.60;99.90;;;;;;5049467;28;20478;-66
2023/08/31 03:56:32;;;;;;;10.93;3.13;;;12.70;99.90;;;;;;5049528;28;20508;-66
2023/08/31 03:59:04;;;;;;;7.40;2.00;;;12.60;99.90;;;;;;5049616;28;20528;-66
2023/08/31 04:01:32;;;;;;;8.03;2.77;;;12.60;99.90;;;;;;5049619;28;20444;-66
2023/08/31 04:04:00;;;;;;;8.07;2.33;;;12.70;99.90;;;;;;5049412;28;20442;-66
2023/08/31 04:06:29;;;;;;;8.00;2.10;;;12.70;99.90;;;;;;5049636;28;20448;-66
2023/08/31 04:08:57;;;;;;;13.40;3.33;;;12.60;99.90;;;;;;5049485;28;20553;-67
2023/08/31 04:11:26;;;;;;;8.43;2.67;;;12.60;99.90;;;;;;5049631;28;20943;-66
2023/08/31 04:13:54;;;;;;;8.03;2.50;;;12.60;99.90;;;;;;5049182;28;20991;-66
2023/08/31 04:16:23;;;;;;;7.47;2.17;;;12.70;99.90;;;;;;5049584;28;20502;-65
2023/08/31 04:18:52;;;;;;;7.20;2.07;;;12.80;99.90;;;;;;5049696;28;20442;-66
2023/08/31 04:21:19;;;;;;;8.23;2.23;;;12.70;99.90;;;;;;5049611;28;20446;-66
2023/08/31 04:23:47;;;;;;;8.40;2.60;;;12.70;99.90;;;;;;5049290;28;20450;-66
2023/08/31 04:26:16;;;;;;;12.37;3.00;;;12.70;99.90;;;;;;5049221;28;20446;-66
2023/08/31 04:28:44;;;;;;;7.87;3.00;;;12.70;99.90;;;;;;5049499;28;20445;-66
2023/08/31 04:31:12;;;;;;;9.57;2.50;;;12.60;99.90;;;;;;5049360;28;20445;-66
2023/08/31 04:33:41;;;;;;;8.63;2.97;;;12.60;99.90;;;;;;5049227;28;20513;-67
2023/08/31 04:36:09;;;;;;;8.97;2.60;;;12.60;99.90;;;;;;5049299;28;20475;-66
2023/08/31 04:38:38;;;;;;;8.00;2.83;;;12.60;99.90;;;;;;5049309;28;20472;-66
2023/08/31 04:41:06;;;;;;;8.70;2.13;;;12.60;99.90;;;;;;5051402;28;20445;-66
2023/08/31 04:43:34;;;;;;;8.30;2.53;;;12.60;99.90;;;;;;5053175;28;20440;-67
2023/08/31 04:46:03;;;;;;;10.23;2.90;;;12.60;99.90;;;;;;5053300;28;20977;-66
2023/08/31 04:48:31;;;;;;;9.90;2.40;;;12.60;99.90;;;;;;5053384;28;20485;-67
2023/08/31 04:51:01;;;;;;;8.27;2.57;;;12.60;99.90;;;;;;5053188;28;20531;-67
2023/08/31 04:53:30;;;;;;;8.80;3.10;;;12.70;99.90;;;;;;5052696;28;20517;-66
2023/08/31 04:55:58;;;;;;;7.23;2.27;;;12.60;99.90;;;;;;5053312;28;20803;-67
2023/08/31 04:58:25;;;;;;;9.83;2.70;;;12.60;99.90;;;;;;5052927;28;20910;-66
2023/08/31 05:00:53;;;;;;;9.37;3.10;;;12.60;99.90;;;;;;5052916;28;20440;-66
2023/08/31 05:03:21;;;;;;;9.67;3.10;;;12.60;99.90;;;;;;5052852;28;20486;-66
2023/08/31 05:05:49;;;;;;;8.67;3.07;;;12.60;99.90;;;;;;5052772;28;20480;-67
2023/08/31 05:08:18;;;;;;;11.57;2.63;;;12.50;99.90;;;;;;5052702;28;20565;-67
2023/08/31 05:10:46;;;;;;;10.87;2.60;;;12.50;99.90;;;;;;5053284;28;21043;-66
2023/08/31 05:13:14;;;;;;;10.10;2.37;;;12.50;99.90;;;;;;5052660;28;20503;-66
2023/08/31 05:15:42;;;;;;;9.03;3.20;;;12.40;99.90;;;;;;5052920;28;20454;-67
2023/08/31 05:18:10;;;;;;;10.70;3.10;;;12.30;99.90;;;;;;5052633;28;20457;-67
2023/08/31 05:20:38;;;;;;;9.33;2.77;;;12.30;99.90;;;;;;5052630;28;20472;-68
2023/08/31 05:23:06;;;;;;;8.90;3.07;;;12.20;99.90;;;;;;5052754;28;20531;-67
2023/08/31 05:25:35;;;;;;;11.13;2.90;;;12.30;99.90;;;;;;5053048;28;20438;-67
2023/08/31 05:28:04;;;;;;;9.13;3.10;;;12.40;99.90;;;;;;5052835;28;20548;-67
2023/08/31 05:30:33;;;;;;;10.07;2.80;;;12.40;99.90;;;;;;5053038;28;20454;-67
2023/08/31 05:33:01;;;;;;;12.17;3.20;;;12.50;99.90;;;;;;5052307;28;20933;-67
2023/08/31 05:35:30;;;;;;;8.00;2.83;;;12.50;99.90;;;;;;5052718;28;20524;-66
2023/08/31 05:37:58;;;;;;;8.50;2.67;;;12.60;99.90;;;;;;5052349;28;20468;-67
2023/08/31 05:40:25;;;;;;;9.13;2.97;;;12.60;99.90;;;;;;5052832;28;20553;-66
2023/08/31 05:42:55;;;;;;;11.87;2.70;;;12.60;99.90;;;;;;5052306;28;20837;-66
2023/08/31 05:45:23;;;;;;;10.93;3.50;;;12.70;99.90;;;;;;5052579;28;20534;-67
2023/08/31 05:47:51;;;;;;;10.30;3.40;;;12.80;99.90;;;;;;5052146;28;21043;-67
2023/08/31 05:50:19;;;;;;;9.17;2.60;;;12.80;99.90;;;;;;5052445;28;20528;-67
2023/08/31 05:52:47;;;;;;;7.60;2.70;;;12.90;99.90;;;;;;5051725;28;20881;-67
2023/08/31 05:55:15;;;;;;;9.70;2.47;;;12.90;99.90;;;;;;5052088;28;20533;-66
2023/08/31 05:57:43;;;;;;;10.17;3.53;;;12.90;99.90;;;;;;5052120;28;20525;-66
2023/08/31 06:00:13;;;;;;;8.43;2.83;;;12.90;99.90;;;;;;5052057;28;20439;-67
2023/08/31 06:02:41;;;;;;;8.07;2.43;;;12.80;99.90;;;;;;5051978;28;20476;-67
2023/08/31 06:05:11;;;;;;;7.97;2.37;;;12.90;99.90;;;;;;5052161;28;20443;-67
2023/08/31 06:07:40;;;;;;;9.40;3.00;;;13.00;99.90;;;;;;5051913;28;20877;-67
2023/08/31 06:10:08;;;;;;;10.70;2.83;;;13.00;99.90;;;;;;5051677;28;20463;-67
2023/08/31 06:12:36;;;;;;;11.80;3.40;;;13.20;99.90;;;;;;5051473;28;20440;-66
2023/08/31 06:15:05;;;;;;;9.10;2.83;;;13.30;99.90;;;;;;5051650;28;20820;-67
2023/08/31 06:17:35;;;;;;;10.83;3.37;;;13.50;99.90;;;;;;5051666;28;20472;-66
2023/08/31 06:20:05;;;;;;;9.97;4.63;;;13.40;99.90;;;;;;5051539;28;20448;-67
2023/08/31 06:22:33;;;;;;;10.30;2.53;;;13.50;99.90;;;;;;5051372;28;20467;-67
2023/08/31 06:25:02;;;;;;;8.40;2.57;;;13.50;99.90;;;;;;5051293;28;20474;-67
2023/08/31 06:27:30;;;;;;;10.53;2.27;;;13.60;99.90;;;;;;5051492;28;20520;-67
2023/08/31 06:29:58;;;;;;;10.57;2.90;;;13.70;99.90;;;;;;5051307;28;21001;-67
2023/08/31 06:32:27;;;;;;;10.03;2.47;;;13.60;99.90;;;;;;5051474;28;20436;-67
2023/08/31 06:34:56;;;;;;;8.47;2.17;;;13.60;99.90;;;;;;5051120;28;20495;-67
2023/08/31 06:37:24;;;;;;;8.40;3.07;;;13.50;99.90;;;;;;5050808;28;20467;-65
2023/08/31 06:39:52;;;;;;;8.50;2.53;;;13.40;99.90;;;;;;5050953;28;20436;-65
2023/08/31 06:42:20;;;;;;;8.90;2.57;;;13.40;99.90;;;;;;5051053;28;20470;-65
2023/08/31 06:44:48;;;;;;;8.30;2.43;;;13.50;99.90;;;;;;5051141;28;20444;-66
2023/08/31 06:47:17;;;;;;;8.90;2.53;;;13.60;99.90;;;;;;5050792;28;20506;-66
2023/08/31 06:49:45;;;;;;;10.20;2.97;;;13.80;99.90;;;;;;5051001;28;20455;-65
2023/08/31 06:52:15;;;;;;;11.17;2.30;;;14.30;99.90;;;;;;5050800;28;20459;-66
2023/08/31 06:54:58;;;;;;;10.00;3.40;;;14.70;99.90;;;;;;5050995;28;20483;-66
2023/08/31 06:57:28;;;;;;;10.03;2.53;;;15.10;99.90;;;;;;5050890;28;20471;-66
2023/08/31 06:59:56;;;;;;;9.20;2.17;;;15.30;99.90;;;;;;5050826;28;20548;-66
2023/08/31 07:02:26;;;;;;;8.00;2.20;;;15.60;99.90;;;;;;5050508;28;20456;-66
2023/08/31 07:04:54;;;;;;;10.63;2.13;;;15.70;99.90;;;;;;5050492;28;20438;-65
2023/08/31 07:07:24;;;;;;;8.07;2.10;;;15.80;99.90;;;;;;5050540;28;20471;-65
2023/08/31 07:09:52;;;;;;;9.73;1.77;;;15.80;99.90;;;;;;5050743;28;20470;-66
2023/08/31 07:12:20;;;;;;;10.03;2.20;;;15.80;99.90;;;;;;5050505;28;20444;-66
2023/08/31 07:14:48;;;;;;;8.10;1.93;;;15.90;99.90;;;;;;5050635;28;21072;-66
2023/08/31 07:17:19;;;;;;;10.20;2.50;;;15.80;99.90;;;;;;5050561;28;21047;-66
2023/08/31 07:19:48;;;;;;;7.67;1.73;;;15.70;99.90;;;;;;5050537;28;20498;-67
2023/08/31 07:22:15;;;;;;;9.00;2.10;;;15.70;99.90;;;;;;5050891;28;20448;-67
2023/08/31 07:24:45;;;;;;;8.93;2.50;;;15.70;99.90;;;;;;5050741;28;20444;-67
2023/08/31 07:27:13;;;;;;;8.37;2.13;;;15.50;99.90;;;;;;5050561;28;20530;-66
2023/08/31 07:29:41;;;;;;;8.27;2.30;;;15.40;99.90;;;;;;5050861;28;20492;-67
2023/08/31 07:32:08;;;;;;;9.27;1.90;;;15.40;99.90;;;;;;5049847;28;20442;-67
2023/08/31 07:34:36;;;;;;;9.00;1.70;;;15.30;99.90;;;;;;5049613;28;20821;-67
2023/08/31 07:37:06;;;;;;;8.70;1.80;;;15.30;99.90;;;;;;5049933;28;20970;-67
2023/08/31 07:39:33;;;;;;;11.53;2.07;;;15.50;99.90;;;;;;5050238;28;20442;-67
2023/08/31 07:42:03;;;;;;;7.17;1.87;;;15.60;99.90;;;;;;5050005;28;20498;-67
2023/08/31 07:44:31;;;;;;;7.17;1.90;;;15.60;99.90;;;;;;5049605;28;20440;-67
2023/08/31 07:46:59;;;;;;;8.63;2.00;;;15.70;99.90;;;;;;5049950;28;20547;-67
2023/08/31 07:49:27;;;;;;;14.00;2.63;;;15.90;99.90;;;;;;5050146;28;20446;-67
2023/08/31 07:51:55;;;;;;;10.50;2.60;;;16.10;99.90;;;;;;5049965;28;20817;-67
2023/08/31 07:54:23;;;;;;;8.10;1.73;;;16.40;99.90;;;;;;5049536;28;20497;-67
2023/08/31 07:56:51;;;;;;;9.80;2.37;;;16.50;99.90;;;;;;5049724;28;20484;-67
2023/08/31 07:59:21;;;;;;;10.83;2.30;;;16.60;99.90;;;;;;5049630;28;20446;-66
2023/08/31 08:01:49;;;;;;;8.70;2.45;;;16.70;99.90;;;;;;5049310;28;20428;-67
2023/08/31 08:04:19;;;;;;;8.97;2.43;;;16.70;99.90;;;;;;5049592;28;20205;-67
2023/08/31 08:06:47;;;;;;;9.97;2.10;;;16.80;99.90;;;;;;5049687;28;20469;-67
2023/08/31 08:09:15;;;;;;;9.80;1.60;;;16.80;99.90;;;;;;5049537;28;20462;-67
2023/08/31 08:11:43;;;;;;;7.83;1.83;;;16.90;99.90;;;;;;5049444;28;20528;-67
2023/08/31 08:14:11;;;;;;;10.17;2.03;;;17.00;99.90;;;;;;5050175;28;20455;-67
2023/08/31 08:16:40;;;;;;;12.03;1.90;;;17.30;99.90;;;;;;5053803;28;20549;-67
2023/08/31 08:19:08;;;;;;;8.97;1.87;;;17.70;99.90;;;;;;5053553;28;20443;-67
2023/08/31 08:21:36;;;;;;;9.30;2.07;;;18.30;99.90;;;;;;5053975;28;20484;-67
2023/08/31 08:24:04;;;;;;;8.50;1.87;;;18.60;99.90;;;;;;5053252;28;20488;-66
2023/08/31 08:26:32;;;;;;;7.97;2.17;;;18.40;99.90;;;;;;5053618;28;20811;-67
2023/08/31 08:29:00;;;;;;;8.23;1.97;;;17.90;99.90;;;;;;5053677;28;20984;-67
2023/08/31 08:31:28;;;;;;;8.13;1.70;;;17.40;99.90;;;;;;5053403;28;20446;-66
2023/08/31 08:33:58;;;;;;;8.20;2.07;;;17.20;99.90;;;;;;5053217;28;20517;-67
2023/08/31 08:36:25;;;;;;;10.40;2.23;;;17.00;99.90;;;;;;5053210;28;20484;-67
2023/08/31 08:38:53;;;;;;;8.07;1.80;;;17.00;99.90;;;;;;5053328;28;20452;-67
2023/08/31 08:41:24;;;;;;;7.77;1.37;;;17.00;99.90;;;;;;5053183;28;21105;-67
2023/08/31 08:43:53;;;;;;;31.83;3.07;;;17.20;99.90;;;;;;5053584;28;20449;-67
2023/08/31 08:46:23;;;;;;;7.50;1.90;;;17.30;99.90;;;;;;5054144;28;20436;-67
2023/08/31 08:48:51;;;;;;;8.37;1.90;;;17.50;99.90;;;;;;5054413;28;20817;-67
2023/08/31 08:51:22;;;;;;;7.50;1.43;;;17.50;99.90;;;;;;5053434;28;20480;-67
2023/08/31 08:53:51;;;;;;;7.87;2.10;;;17.50;99.90;;;;;;5053182;28;20442;-67
2023/08/31 08:56:19;;;;;;;11.57;1.83;;;17.80;99.90;;;;;;5053023;28;20483;-67
2023/08/31 08:58:47;;;;;;;8.83;2.50;;;17.90;99.90;;;;;;5053050;28;20530;-66
2023/08/31 09:01:17;;;;;;;9.77;2.37;;;18.00;99.90;;;;;;5053025;28;20530;-67
2023/08/31 09:03:45;;;;;;;10.60;2.47;;;18.10;99.90;;;;;;5052779;28;20444;-67
2023/08/31 09:06:13;;;;;;;8.20;1.90;;;18.30;99.90;;;;;;5052683;28;20452;-67
2023/08/31 09:08:42;;;;;;;8.23;1.83;;;18.20;99.90;;;;;;5052751;28;20473;-66
2023/08/31 09:11:22;;;;;;;7.93;1.80;;;17.90;99.90;;;;;;5052607;28;20930;-66
2023/08/31 09:13:50;;;;;;;9.27;2.23;;;17.80;99.90;;;;;;5051731;28;20810;-65
2023/08/31 09:16:26;;;;;;;7.03;1.77;;;18.00;99.90;;;;;;5045050;28;20483;-67
2023/08/31 09:18:54;;;;;;;8.43;1.93;;;17.90;99.90;;;;;;5048854;28;20537;-65
2023/08/31 09:21:24;;;;;;;7.70;2.00;;;17.90;99.90;;;;;;5043162;28;20458;-65
2023/08/31 09:23:58;;;;;;;8.73;2.00;;;17.80;99.90;;;;;;5044565;28;20441;-66
2023/08/31 09:26:26;;;;;;;7.40;2.37;;;17.80;99.90;;;;;;5043763;28;20456;-67
2023/08/31 09:28:54;;;;;;;7.60;1.77;;;18.10;99.90;;;;;;5042273;28;20528;-69
2023/08/31 09:31:30;;;;;;;7.20;1.90;;;18.50;99.90;;;;;;5050254;28;20448;-69
2023/08/31 09:33:59;;;;;;;7.00;1.43;;;19.20;99.90;;;;;;5053682;28;20443;-71
2023/08/31 09:36:28;;;;;;;8.73;1.83;;;20.00;99.90;;;;;;5052722;28;20503;-68
2023/08/31 09:38:59;;;;;;;8.47;2.07;;;20.10;97.80;;;;;;5051967;28;20457;-67
2023/08/31 09:41:27;;;;;;;11.40;2.10;;;20.30;96.10;;;;;;5050445;28;20498;-67
2023/08/31 09:43:55;;;;;;;8.33;2.07;;;20.40;95.70;;;;;;5046659;28;20552;-67
2023/08/31 09:46:24;;;;;;;8.20;2.13;;;20.40;94.50;;;;;;5050218;28;20440;-67
2023/08/31 09:48:53;;;;;;;9.20;1.97;;;20.60;94.80;;;;;;5050520;28;20494;-65
2023/08/31 09:51:24;;;;;;;10.20;2.00;;;20.70;93.50;;;;;;5048902;28;20451;-67
2023/08/31 09:53:56;;;;;;;8.83;2.00;;;20.70;93.20;;;;;;5049440;28;20562;-71
2023/08/31 09:56:28;;;;;;;7.87;1.80;;;20.80;90.60;;;;;;5044311;28;20573;-67
2023/08/31 09:58:56;;;;;;;8.90;2.07;;;20.80;90.60;;;;;;5050309;28;20440;-67
2023/08/31 10:01:24;;;;;;;7.90;1.87;;;20.60;90.60;;;;;;5050060;28;20440;-68
2023/08/31 10:03:57;;;;;;;9.03;2.17;;;20.70;90.40;;;;;;5049951;28;20436;-67
2023/08/31 10:06:26;;;;;;;8.50;1.63;;;20.90;91.20;;;;;;5049830;28;20498;-66
2023/08/31 10:08:55;;;;;;;9.63;1.47;;;20.70;84.10;;;;;;5049742;28;20476;-66
2023/08/31 10:11:25;;;;;;;7.63;1.70;;;20.10;86.40;;;;;;5050061;28;20447;-67
2023/08/31 10:13:58;;;;;;;9.67;1.80;;;20.00;89.00;;;;;;5049182;28;20527;-67
2023/08/31 10:16:27;;;;;;;8.00;1.80;;;19.90;87.30;;;;;;5049984;28;20510;-69
2023/08/31 10:18:56;;;;;;;7.93;1.33;;;20.20;90.90;;;;;;5049529;28;20527;-68
2023/08/31 10:21:24;;;;;;;8.53;1.97;;;20.70;82.00;;;;;;5049882;28;20545;-67
2023/08/31 10:23:52;;;;;;;7.33;1.50;;;21.00;85.10;;;;;;5049252;28;20443;-68
2023/08/31 10:26:27;;;;;;;7.80;1.57;;;21.10;83.50;;;;;;5049300;28;20827;-67
2023/08/31 10:28:58;;;;;;;8.00;2.00;;;20.40;80.90;;;;;;5049590;28;20463;-68
2023/08/31 10:31:30;;;;;;;7.80;1.77;;;19.70;79.70;;;;;;5049408;28;20444;-67
2023/08/31 10:33:59;;;;;;;7.30;1.73;;;19.20;81.50;;;;;;5049206;28;20526;-68
2023/08/31 10:36:39;;;;;;;7.63;1.80;;;18.90;83.20;;;;;;5049746;28;20483;-68
2023/08/31 10:39:12;;;;;;;10.37;2.03;;;19.00;87.00;;;;;;5048712;28;20464;-67
2023/08/31 10:41:40;;;;;;;8.17;1.83;;;19.10;83.60;;;;;;5049322;28;20493;-67
2023/08/31 10:44:23;;;;;;;10.07;2.33;;;19.10;84.20;;;;;;5048720;28;20477;-67
2023/08/31 10:46:52;;;;;;;10.70;1.83;;;18.90;84.70;;;;;;5049109;28;20542;-68
2023/08/31 10:49:21;;;;;;;8.93;2.00;;;18.80;84.90;;;;;;5049336;28;20814;-66
2023/08/31 10:51:51;;;;;;;7.93;1.93;;;18.90;89.10;;;;;;5049218;28;20946;-66
2023/08/31 10:54:24;;;;;;;8.57;1.93;;;19.00;90.30;;;;;;5048867;28;20505;-67
2023/08/31 10:57:03;;;;;;;8.27;2.00;;;19.00;86.90;;;;;;5047901;28;20492;-66
2023/08/31 10:59:50;;;;;;;8.13;1.60;;;19.00;84.80;;;;;;5049089;28;20510;-69
2023/08/31 11:02:46;;;;;;;8.47;1.80;;;19.30;88.90;;;;;;5049006;28;20497;-67
2023/08/31 11:05:16;;;;;;;9.10;2.00;;;19.70;90.90;;;;;;5035998;28;20882;-67
2023/08/31 11:07:46;;;;;;;7.70;1.80;;;20.00;85.50;;;;;;5048869;28;20452;-66
2023/08/31 11:10:17;;;;;;;8.33;2.03;;;19.90;82.80;;;;;;5048791;28;20510;-67
2023/08/31 11:12:47;;;;;;;10.13;1.70;;;20.00;87.00;;;;;;5048557;28;20440;-67
2023/08/31 11:15:18;;;;;;;9.57;2.33;;;20.00;87.10;;;;;;5048676;28;20946;-69
2023/08/31 11:17:46;;;;;;;7.77;2.30;;;20.20;87.10;;;;;;5047645;28;20507;-67
2023/08/31 11:20:16;;;;;;;8.63;2.00;;;20.00;82.20;;;;;;5029628;28;20448;-67
2023/08/31 11:22:46;;;;;;;10.00;2.60;;;20.20;83.60;;;;;;5029982;28;20433;-68
2023/08/31 11:25:15;;;;;;;7.93;2.07;;;20.80;80.90;;;;;;5030341;28;20515;-67
2023/08/31 11:27:44;;;;;;;9.10;1.97;;;21.70;79.40;;;;;;5029993;28;20465;-66
2023/08/31 11:30:14;;;;;;;9.80;1.93;;;22.10;75.90;;;;;;5035915;28;20452;-67
2023/08/31 11:32:47;;;;;;;7.93;1.90;;;21.80;77.20;;;;;;5049745;28;20468;-67
2023/08/31 11:35:16;;;;;;;9.40;2.10;;;21.50;77.00;;;;;;5049565;28;20968;-67
2023/08/31 11:37:45;;;;;;;9.30;1.70;;;21.20;79.30;;;;;;5049775;28;20487;-66
2023/08/31 11:40:15;;;;;;;10.00;2.10;;;20.90;79.10;;;;;;5049873;28;20455;-67
2023/08/31 11:42:43;;;;;;;7.47;1.93;;;20.70;80.20;;;;;;5049631;28;20926;-68
2023/08/31 11:45:13;;;;;;;12.27;2.43;;;21.40;78.00;;;;;;5050023;28;20472;-66
2023/08/31 11:47:44;;;;;;;9.13;2.30;;;21.70;75.60;;;;;;5049796;28;20468;-66
2023/08/31 11:50:15;;;;;;;7.80;1.87;;;21.60;81.50;;;;;;5049116;28;20439;-68
2023/08/31 11:52:43;;;;;;;9.30;2.23;;;21.80;80.00;;;;;;5049265;28;20483;-67
2023/08/31 11:55:12;;;;;;;9.77;2.30;;;21.70;75.90;;;;;;5046008;28;20463;-67
2023/08/31 11:57:41;;;;;;;10.57;1.77;;;21.30;75.60;;;;;;5042664;28;20480;-67
2023/08/31 12:00:10;;;;;;;9.67;1.97;;;21.50;79.50;;;;;;5061773;28;20450;-67
2023/08/31 12:02:39;;;;;;;10.30;2.20;;;22.10;77.20;;;;;;5068465;28;20760;-67
2023/08/31 12:05:07;;;;;;;8.20;1.73;;;22.40;75.00;;;;;;5050851;28;20542;-67
2023/08/31 12:07:42;;;;;;;7.00;1.63;;;22.10;73.80;;;;;;5047343;28;20542;-67
2023/08/31 12:10:11;;;;;;;7.57;1.90;;;22.00;76.60;;;;;;5046545;28;20486;-68
2023/08/31 12:12:39;;;;;;;12.03;2.50;;;21.90;73.60;;;;;;5049287;28;20527;-66
2023/08/31 12:15:08;;;;;;;8.33;2.23;;;21.80;75.10;;;;;;5049576;28;20503;-67
2023/08/31 12:17:40;;;;;;;10.97;1.90;;;21.50;77.80;;;;;;5049460;28;20982;-67
2023/08/31 12:20:09;;;;;;;8.07;2.00;;;21.10;79.50;;;;;;5049739;28;20451;-67
2023/08/31 12:22:38;;;;;;;8.47;2.10;;;20.60;78.70;;;;;;5049394;28;20800;-67
2023/08/31 12:25:08;;;;;;;9.20;2.00;;;20.30;81.00;;;;;;5045976;28;20456;-67
2023/08/31 12:27:36;;;;;;;7.67;1.90;;;20.10;80.60;;;;;;5045412;28;20448;-67
2023/08/31 12:30:05;;;;;;;10.17;2.20;;;20.00;79.20;;;;;;5048996;28;20432;-67
2023/08/31 12:32:33;;;;;;;10.03;1.90;;;20.30;81.50;;;;;;5049092;28;20444;-67
2023/08/31 12:35:01;;;;;;;9.07;2.30;;;20.70;83.60;;;;;;5049427;28;20436;-68
2023/08/31 12:37:28;;;;;;;8.87;2.03;;;21.70;77.50;;;;;;5049532;28;20853;-68
2023/08/31 12:39:56;;;;;;;10.33;1.93;;;23.20;76.60;;;;;;5049166;28;20952;-67
2023/08/31 12:42:25;;;;;;;8.20;2.10;;;24.30;66.90;;;;;;5049022;28;20536;-67
2023/08/31 12:44:53;;;;;;;7.60;1.60;;;24.80;67.60;;;;;;5049128;28;20523;-67
2023/08/31 12:47:21;;;;;;;10.07;2.40;;;25.20;64.90;;;;;;5049121;28;20460;-67
2023/08/31 12:49:49;;;;;;;9.60;1.97;;;25.50;62.60;;;;;;5049359;28;20506;-66
2023/08/31 12:52:17;;;;;;;9.37;2.50;;;24.40;60.70;;;;;;5049332;28;20914;-68
2023/08/31 12:54:45;;;;;;;11.50;2.10;;;23.30;61.50;;;;;;5049116;28;20518;-66
2023/08/31 12:57:13;;;;;;;9.47;2.30;;;22.60;65.60;;;;;;5048463;28;20876;-66